Ely, Nevada Weather observations

Data are for observation ending at time listed.
 Day   Time    Ave.   Ave.  Ave.  Vector   Max.   Stn.    Total    Solar   Ave.  
  of    of     Air    Rel.  Wind   Wind    Wind   Baro.  Precip.   Rad.    Soil  
Year   Day     Temp.  Hum.  Speed  Dir.    Gust   Pres.                    Temp. 
2016   (PST)    F      %     mph   deg.    mph     mb.     in.     W/m2     F   
------------------------------------------------------------------------------
 149   13:40   65.2    26    5.7   172      8.2   809.3    0.00     398    66.0
 149   13:50   65.3    24    4.2   147      7.5   809.2    0.00     473    66.2
 149   14:00   66.0    29    6.1   351     19.1   809.1    0.00     750    66.6
 149   14:10   66.2    30   12.8   332     18.5   809.0    0.00     956    67.2
 149   14:20   65.5    31   12.7   330     19.3   808.9    0.00     861    67.7
 149   14:30   65.7    31   10.7   335     17.0   808.8    0.00     790    68.0
 149   14:40   65.9    30    9.9   334     15.2   808.9    0.00     872    68.1
 149   14:50   66.2    29    7.3   344     14.1   808.8    0.00     397    68.3
 149   15:00   65.9    27    6.6   317     11.4   808.9    0.00     335    68.0
 149   15:10   65.6    29    8.0   300     16.0   809.1    0.00     197    67.8
 149   15:20   64.9    29    8.9   272     23.2   809.3    0.00     209    67.4
 149   15:30   64.7    31    8.6   230     14.2   809.5    0.00     275    67.2
 149   15:40   63.1    33    6.9   279     11.2   809.4    0.00     209    67.0
 149   15:50   63.0    32    7.0   319     14.2   809.3    0.00     305    66.6
 149   16:00   63.9    32   11.6   330     17.2   809.3    0.00     633    66.5
 149   16:10   64.2    30    7.7   345     11.8   809.2    0.00     561    66.8
 149   16:20   64.3    30    9.5   345     14.5   809.2    0.00     410    67.0
 149   16:30   64.3    30    7.8   359     13.0   809.1    0.00     347    67.0
 149   16:40   63.9    33   10.6   356     15.8   809.1    0.00     244    66.8
 149   16:50   63.5    33   10.7     6     14.3   809.1    0.00     225    66.5
 149   17:00   63.2    34    9.9    10     13.7   809.1    0.00     140    66.3
 149   17:10   63.7    36    8.9     9     12.2   809.1    0.00     148    66.0
 149   17:20   63.2    34    9.8    16     15.1   809.1    0.00     134    65.9
 149   17:30   63.3    33    7.6    14     12.3   809.1    0.00     110    65.6
 149   17:40   63.3    33    6.9   356     10.7   809.3    0.00      89    65.3
 149   17:50   62.9    35    7.4   328     10.3   809.4    0.00      72    65.1
 149   18:00   62.3    38    4.1   310      7.7   809.7    0.00      50    64.8
 149   18:10   61.5    41    8.9   147     23.0   810.2    0.00      14    64.6
 149   18:20   58.6    49   10.8   103     20.8   810.5    0.00      15    64.3
 149   18:30   57.6    49    8.8    85     15.5   810.6    0.00      20    63.9
 149   18:40   57.4    49    4.4    82     10.5   810.7    0.00      11    63.5
 149   18:50   57.4    49    5.7   290     10.8   810.8    0.00       7    63.2
 149   19:00   56.8    52    5.9   285     10.4   810.9    0.00       7    62.9
 149   19:10   56.9    50    8.3   317     11.8   810.8    0.00       5    62.6
 149   19:20   57.3    49    9.9   351     15.4   810.6    0.00       1    62.3
 149   19:30   57.1    52   10.0   349     17.2   810.5    0.00       0    62.0
 149   19:40   56.9    55    5.4   347      8.7   810.7    0.00       0    61.8
 149   19:50   56.5    54    3.2    17      6.3   810.7    0.00       0    61.6
 149   20:00   56.7    50    2.9    64      9.0   810.8    0.00       0    61.3
 149   20:10   54.7    57    6.2   292     10.5   811.0    0.00       0    61.1
 149   20:20   55.3    55    5.9   341     14.5   811.3    0.00       0    60.9
 149   20:30   54.7    57   13.0   340     17.6   811.4    0.00       0    60.6
 149   20:40   53.9    62   13.1   344     18.6   811.4    0.00       0    60.3
 149   20:50   53.4    64   13.5   338     19.3   811.5    0.00       0    60.0
 149   21:00   52.9    66   14.1   336     18.5   811.5    0.00       1    59.7
 149   21:10   52.5    67   11.3   341     17.3   811.7    0.00       0    59.5
 149   21:20   52.1    68    9.8   352     14.2   811.9    0.00       0    59.2
 149   21:30   51.7    69   10.4   358     15.3   811.9    0.00       0    59.0
 149   21:40   51.9    68   10.0   357     13.4   812.0    0.00       0    58.8
 149   21:50   51.9    68   10.0   355     14.4   812.0    0.00       0    58.6
 149   22:00   52.0    68    8.7   350     12.7   812.0    0.00       1    58.4
 149   22:10   51.8    69    7.7   352     12.2   812.0    0.00       1    58.2
 149   22:20   51.9    71    6.9   347     10.9   811.9    0.00       1    58.1
 149   22:30   51.3    72    6.6   332      9.6   811.8    0.00       0    58.0
 149   22:40   50.2    73    7.2   305     10.2   811.8    0.00       0    57.8
 149   22:50   48.7    76    7.4   278      9.8   811.8    0.00       0    57.6
 149   23:00   48.7    76    7.3   277     10.1   811.9    0.00       0    57.3
 149   23:10   48.3    77    7.6   278      9.9   811.9    0.00       0    57.1
 149   23:20   47.6    78    5.1   280      7.1   811.9    0.00       0    56.9
 149   23:30   47.6    78    0.4   332      2.3   811.9    0.00       1    56.7
 149   23:40   48.0    77    0.5   139      2.9   811.9    0.00       1    56.6
 149   23:50   47.9    77    2.3   189      4.5   811.9    0.00       0    56.5
 150    0:00   45.2    78    5.1   142      7.2   811.9    0.00       0    56.3
 150    0:10   42.8    82    5.3   131      7.2   811.9    0.00       0    56.1
 150    0:20   42.8    83    6.7   137      8.6   812.0    0.00       0    55.9
 150    0:30   43.3    82    5.4   143      8.0   811.9    0.00       0    55.7
 150    0:40   42.8    83    5.8   137      7.8   811.8    0.00       1    55.6
 150    0:50   42.6    83    5.0   137      6.7   811.8    0.00       1    55.4
 150    1:00   41.8    84    5.7   145      7.5   811.7    0.00       1    55.3
 150    1:10   41.2    85    6.7   142      8.3   811.7    0.00       1    55.1
 150    1:20   41.4    85    7.0   142      9.2   811.8    0.00       0    55.0
 150    1:30   41.6    86    9.0   139     12.1   811.7    0.00       1    54.7
 150    1:40   42.9    84    9.7   139     12.8   811.6    0.00       0    54.6
 150    1:50   42.6    84    8.9   146     12.1   811.7    0.00       0    54.4
 150    2:00   42.1    86    8.6   157     11.4   811.7    0.00       0    54.2
 150    2:10   41.8    86    8.0   161     11.3   811.7    0.00       0    54.1
 150    2:20   41.3    87    8.7   158     11.2   811.7    0.00       0    53.9
 150    2:30   40.9    88    5.7   163      8.8   811.7    0.00       1    53.7
 150    2:40   40.2    88    5.7   174      9.5   811.7    0.00       1    53.5
 150    2:50   41.6    88    7.1   170     10.2   811.7    0.00       0    53.3
 150    3:00   42.5    84    9.1   151     12.4   811.7    0.00       1    53.2
 150    3:10   40.8    87    5.3   136      8.5   811.8    0.00       1    53.1
 150    3:20   39.6    88    5.6   143      8.2   811.9    0.00       1    53.0
 150    3:30   39.5    88    7.8   152     10.3   811.9    0.00       1    52.8
 150    3:40   39.6    88    8.4   152      9.9   811.9    0.00       1    52.7
 150    3:50   39.6    87    7.2   149      9.8   811.9    0.00       1    52.4
 150    4:00   39.5    88    6.5   145      8.9   812.0    0.00       1    52.3
 150    4:10   39.6    87    6.8   156      9.6   812.0    0.00       6    52.1
 150    4:20   39.4    88    5.9   143      8.7   812.1    0.00       7    52.0
 150    4:30   39.4    88    8.8   140     11.0   812.1    0.00       7    51.9
 150    4:40   39.6    88    8.1   127     10.6   812.2    0.00      19    51.8
 150    4:50   40.0    86    7.9   120     11.3   812.2    0.00      20    51.7
 150    5:00   40.8    85    9.1   131     11.8   812.3    0.00      51    51.6
 150    5:10   42.0    82   10.9   140     13.4   812.4    0.00      97    51.6
 150    5:20   42.2    81   10.2   152     12.9   812.3    0.00     122    51.7
 150    5:30   42.5    80   10.0   147     13.1   812.4    0.00     157    51.8
 150    5:40   42.9    79    9.4   147     12.3   812.4    0.00     195    52.0
 150    5:50   44.1    78    6.1   158     10.3   812.5    0.00     232    52.2
 150    6:00   45.8    73    9.3   153     12.4   812.6    0.00     269    52.4
 150    6:10   46.2    72    9.3   160     12.5   812.6    0.00     270    52.6
 150    6:20   47.0    71    6.9   160      9.6   812.6    0.00     313    52.7
 150    6:30   48.2    70    6.3   154      8.3   812.7    0.00     369    52.9
 150    6:40   49.5    69    5.4   147      6.9   812.7    0.00     379    53.1
 150    6:50   50.8    65    4.7   146      6.9   812.7    0.00     435    53.5
 150    7:00   51.8    63    4.9   154      7.2   812.7    0.00     465    53.8
 150    7:10   52.9    61    4.1   156      5.6   812.7    0.00     491    54.1
 150    7:20   54.4    57    3.5   155      5.5   812.6    0.00     529    54.7
 150    7:30   56.1    54    3.0   148      4.3   812.6    0.00     583    55.4
 150    7:40   57.8    51    2.6   113      5.2   812.7    0.00     607    56.1
 150    7:50   59.9    47    1.5    95      4.1   812.6    0.00     654    56.9
 150    8:00   61.5    41    1.6    94      3.7   812.5    0.00     678    57.6
 150    8:10   62.2    41    1.3   115      4.0   812.5    0.00     704    58.4
 150    8:20   62.1    41    0.7   123      2.0   812.4    0.00     770    59.2
 150    8:30   63.9    39    1.9   100      4.1   812.3    0.00     888    59.9
 150    8:40   64.4    38    1.1    67      4.2   812.2    0.00     946    60.7
 150    8:50   65.3    36    2.6   158      5.3   812.1    0.00     656    61.4
 150    9:00   66.1    36    1.0   168      3.0   812.1    0.00     516    61.8
 150    9:10   66.8    33    1.8    62      5.0   812.0    0.00     355    62.0
 150    9:20   66.5    31    2.2    41      5.4   811.9    0.00     684    62.0
 150    9:30   68.1    29    2.2   137      7.2   811.8    0.00    1037    62.4
 150    9:40   70.1    27    2.8   207      7.4   811.7    0.00    1011    63.2
 150    9:50   69.8    24    3.7   158      8.0   811.6    0.00     735    64.0
 150   10:00   69.5    21   10.3   132     16.6   811.6    0.00     624    64.5
 150   10:10   68.0    22    9.3   156     16.1   811.6    0.00     652    65.1
 150   10:20   68.0    21    7.1   110     14.1   811.6    0.00     284    65.4
 150   10:30   67.6    21    8.1   122     14.9   811.5    0.00     265    65.2
 150   10:40   67.1    22   10.6   139     13.5   811.6    0.00     303    64.9
 150   10:50   67.4    22   10.1   131     17.5   811.6    0.00     286    64.9
 150   11:00   65.6    26   16.4   136     22.2   811.7    0.00     247    64.8
 150   11:10   64.2    29   16.0   139     20.8   811.9    0.00     234    64.7
 150   11:20   63.8    29   17.7   140     23.5   812.0    0.00     218    64.6
 150   11:30   63.1    32   15.1   141     19.3   812.1    0.00     222    64.5
 150   11:40   64.1    30   13.4   150     21.2   812.1    0.00     273    64.4
 150   11:50   65.1    29   12.0   192     18.3   812.1    0.00     585    64.3
 150   12:00   67.1    24   11.8   254     19.8   812.0    0.00     846    64.9
 150   12:10   67.3    24    5.6   170     13.0   811.9    0.00     813    65.8
 150   12:20   67.9    24    4.2    58      9.4   811.8    0.00     960    66.3
 150   12:30   68.2    24    3.2    54      6.9   811.7    0.00     965    66.9
 150   12:40   68.4    23    3.7   137      6.6   811.6    0.00     929    67.9
 150   12:50   69.1    22    4.4   114     11.9   811.5    0.00     994    68.8
 150   13:00   69.0    23    5.3    40     10.6   811.4    0.00    1030    69.6
 150   13:10   70.4    22    3.8    72      7.2   811.3    0.00    1033    70.2
 150   13:20   70.0    24    6.7   354     13.1   811.2    0.00    1012    70.8
 150   13:30   70.1    23    9.8   353     18.6   811.0    0.00    1064    71.2

Return to Ely, Nevada graphs page.


Western Regional Climate Center,wrcc@dri.edu